createdAt,value
2018-05-26T00:01:51.046Z,5.67
2018-05-26T00:04:19.655Z,4.87
2018-05-26T00:06:48.481Z,5.63
2018-05-26T00:09:16.928Z,5.50
2018-05-26T00:11:45.384Z,5.13
2018-05-26T00:14:14.038Z,5.40
2018-05-26T00:16:42.782Z,6.07
2018-05-26T00:19:11.226Z,5.60
2018-05-26T00:21:39.693Z,5.10
2018-05-26T00:24:08.337Z,5.03
2018-05-26T00:26:39.620Z,5.63
2018-05-26T00:29:09.907Z,5.73
2018-05-26T00:31:38.408Z,4.63
2018-05-26T00:34:07.177Z,5.90
2018-05-26T00:36:35.675Z,5.60
2018-05-26T00:39:04.590Z,6.10
2018-05-26T00:41:33.102Z,5.70
2018-05-26T00:44:01.540Z,5.53
2018-05-26T00:46:30.299Z,6.20
2018-05-26T00:48:58.729Z,5.60
2018-05-26T00:51:27.398Z,5.33
2018-05-26T00:53:56.047Z,5.93
2018-05-26T00:56:24.478Z,5.80
2018-05-26T00:58:52.955Z,5.80
2018-05-26T01:01:21.566Z,5.90
2018-05-26T01:03:50.198Z,5.93
2018-05-26T01:06:18.987Z,6.47
2018-05-26T01:08:47.860Z,6.30
2018-05-26T01:11:16.691Z,6.83
2018-05-26T01:13:45.154Z,6.63
2018-05-26T01:16:13.844Z,6.00
2018-05-26T01:18:49.259Z,6.80
2018-05-26T01:21:17.828Z,6.80
2018-05-26T01:23:46.259Z,6.83
2018-05-26T01:26:14.775Z,6.30
2018-05-26T01:28:43.181Z,6.10
2018-05-26T01:31:11.672Z,7.37
2018-05-26T01:33:40.122Z,7.00
2018-05-26T01:36:08.641Z,6.93
2018-05-26T01:38:37.300Z,6.00
2018-05-26T01:41:06.021Z,7.37
2018-05-26T01:43:34.454Z,7.13
2018-05-26T01:46:03.043Z,7.13
2018-05-26T01:48:38.191Z,6.87
2018-05-26T01:51:06.682Z,8.30
2018-05-26T01:53:35.147Z,7.80
2018-05-26T01:56:04.172Z,6.90
2018-05-26T01:58:32.868Z,6.70
2018-05-26T02:01:01.351Z,7.53
2018-05-26T02:03:31.132Z,8.33
2018-05-26T02:05:59.653Z,7.30
2018-05-26T02:08:28.496Z,7.50
2018-05-26T02:10:57.584Z,7.30
2018-05-26T02:13:28.350Z,7.10
2018-05-26T02:15:57.563Z,7.03
2018-05-26T02:18:26.356Z,7.60
2018-05-26T02:20:55.465Z,7.10
2018-05-26T02:23:25.762Z,7.73
2018-05-26T02:25:54.294Z,7.40
2018-05-26T02:28:22.900Z,7.30
2018-05-26T02:30:51.578Z,6.90
2018-05-26T02:33:20.091Z,7.53
2018-05-26T02:35:48.580Z,7.33
2018-05-26T02:38:17.223Z,7.43
2018-05-26T02:40:46.623Z,8.37
2018-05-26T02:43:15.384Z,7.03
2018-05-26T02:45:43.844Z,7.97
2018-05-26T02:48:12.384Z,7.20
2018-05-26T02:50:40.923Z,7.90
2018-05-26T02:53:09.555Z,8.30
2018-05-26T02:55:44.566Z,7.43
2018-05-26T02:58:13.061Z,6.97
2018-05-26T03:00:41.534Z,7.50
2018-05-26T03:03:09.961Z,7.43
2018-05-26T03:05:44.509Z,7.43
2018-05-26T03:08:18.299Z,6.77
2018-05-26T03:10:51.941Z,7.03
2018-05-26T03:13:32.690Z,8.33
2018-05-26T03:16:01.206Z,7.10
2018-05-26T03:18:29.617Z,7.03
2018-05-26T03:20:58.146Z,7.30
2018-05-26T03:23:26.768Z,8.00
2018-05-26T03:25:55.447Z,8.20
2018-05-26T03:28:23.906Z,8.23
2018-05-26T03:30:52.509Z,7.63
2018-05-26T03:33:21.103Z,8.07
2018-05-26T03:35:49.786Z,8.30
2018-05-26T03:38:18.206Z,7.70
2018-05-26T03:40:46.967Z,7.67
2018-05-26T03:43:15.422Z,7.03
2018-05-26T03:45:43.881Z,7.27
2018-05-26T03:48:12.457Z,7.93
2018-05-26T03:50:41.099Z,7.63
2018-05-26T03:53:09.535Z,6.87
2018-05-26T03:57:51.515Z,7.70
2018-05-26T04:03:20.426Z,7.90
2018-05-26T04:05:49.793Z,8.07
2018-05-26T04:08:19.031Z,6.97
2018-05-26T04:10:48.116Z,8.47
2018-05-26T04:13:17.322Z,7.90
2018-05-26T04:15:46.753Z,7.67
2018-05-26T04:18:15.828Z,7.63
2018-05-26T04:20:45.033Z,7.60
2018-05-26T04:23:14.123Z,7.30
2018-05-26T04:25:43.824Z,7.67
2018-05-26T04:28:13.070Z,7.27
2018-05-26T04:30:42.341Z,6.90
2018-05-26T04:33:11.490Z,7.50
2018-05-26T04:35:40.633Z,7.77
2018-05-26T04:38:09.997Z,8.77
2018-05-26T04:40:39.134Z,7.00
2018-05-26T04:43:08.285Z,7.30
2018-05-26T04:45:37.512Z,7.00
2018-05-26T04:48:06.559Z,7.60
2018-05-26T04:50:35.811Z,7.20
2018-05-26T04:53:04.977Z,7.17
2018-05-26T04:55:34.204Z,6.27
2018-05-26T04:58:03.432Z,7.80
2018-05-26T05:00:33.083Z,7.00
2018-05-26T05:03:02.593Z,7.47
2018-05-26T05:05:31.693Z,6.80
2018-05-26T05:08:00.871Z,6.63
2018-05-26T05:10:30.308Z,6.60
2018-05-26T05:12:59.976Z,6.20
2018-05-26T05:15:29.267Z,6.50
2018-05-26T05:17:58.527Z,6.40
2018-05-26T05:20:27.624Z,7.20
2018-05-26T05:22:56.998Z,6.93
2018-05-26T05:25:26.331Z,7.00
2018-05-26T05:27:55.389Z,6.23
2018-05-26T05:30:24.899Z,6.27
2018-05-26T05:32:54.223Z,6.00
2018-05-26T05:35:23.519Z,6.13
2018-05-26T05:37:52.802Z,6.43
2018-05-26T05:40:22.025Z,7.57
2018-05-26T05:42:51.299Z,6.97
2018-05-26T05:45:20.520Z,6.30
2018-05-26T05:47:49.808Z,6.20
2018-05-26T05:50:19.153Z,6.30
2018-05-26T05:52:48.517Z,6.50
2018-05-26T05:55:17.530Z,6.00
2018-05-26T05:57:46.725Z,6.20
2018-05-26T06:00:16.020Z,6.40
2018-05-26T06:02:45.284Z,6.73
2018-05-26T06:05:14.723Z,6.63
2018-05-26T06:07:44.000Z,6.67
2018-05-26T06:10:13.225Z,5.90
2018-05-26T06:12:42.403Z,6.17
2018-05-26T06:15:11.734Z,6.40
2018-05-26T06:17:41.169Z,6.30
2018-05-26T06:20:10.435Z,5.60
2018-05-26T06:22:39.717Z,7.00
2018-05-26T06:25:09.959Z,6.43
2018-05-26T06:27:39.320Z,6.53
2018-05-26T06:30:15.226Z,6.27
2018-05-26T06:32:44.390Z,6.47
2018-05-26T06:35:13.512Z,6.80
2018-05-26T06:37:42.896Z,5.80
2018-05-26T06:40:12.199Z,5.30
2018-05-26T06:42:41.841Z,5.97
2018-05-26T06:45:10.989Z,5.80
2018-05-26T06:47:40.248Z,6.00
2018-05-26T06:50:09.727Z,5.03
2018-05-26T06:52:38.876Z,5.33
2018-05-26T06:55:08.235Z,5.53
2018-05-26T06:57:37.469Z,5.53
2018-05-26T07:00:06.848Z,5.73
2018-05-26T07:02:36.051Z,5.43
2018-05-26T07:05:05.262Z,5.00
2018-05-26T07:07:34.364Z,5.03
2018-05-26T07:10:03.517Z,5.37
2018-05-26T07:12:32.766Z,4.90
2018-05-26T07:15:02.060Z,4.67
2018-05-26T07:17:31.508Z,4.93
2018-05-26T07:20:00.596Z,5.10
2018-05-26T07:22:30.137Z,4.70
2018-05-26T07:24:59.405Z,5.10
2018-05-26T07:27:28.652Z,4.87
2018-05-26T07:29:57.956Z,5.07
2018-05-26T07:32:27.299Z,5.00
2018-05-26T07:34:56.472Z,4.73
2018-05-26T07:37:25.899Z,5.10
2018-05-26T07:39:55.256Z,4.70
2018-05-26T07:42:24.400Z,4.60
2018-05-26T07:44:53.770Z,4.57
2018-05-26T07:47:23.144Z,4.47
2018-05-26T07:49:52.584Z,4.70
2018-05-26T07:52:21.808Z,4.30
2018-05-26T07:54:51.060Z,4.80
2018-05-26T07:57:20.089Z,4.37
2018-05-26T07:59:49.359Z,4.33
2018-05-26T08:02:18.719Z,4.40
2018-05-26T08:04:47.948Z,4.70
2018-05-26T08:07:17.217Z,3.90
2018-05-26T08:09:46.560Z,3.77
2018-05-26T08:12:15.790Z,3.70
2018-05-26T08:14:45.163Z,3.67
2018-05-26T08:17:16.646Z,3.47
2018-05-26T08:19:46.084Z,3.67
2018-05-26T08:22:15.157Z,4.10
2018-05-26T08:24:44.327Z,3.63
2018-05-26T08:27:13.579Z,5.67
2018-05-26T08:29:42.819Z,3.97
2018-05-26T08:32:12.295Z,4.27
2018-05-26T08:34:41.891Z,3.90
2018-05-26T08:37:11.056Z,4.00
2018-05-26T08:39:40.424Z,4.30
2018-05-26T08:42:09.954Z,3.50
2018-05-26T08:44:39.481Z,3.57
2018-05-26T08:47:11.874Z,3.63
2018-05-26T08:49:43.375Z,3.50
2018-05-26T08:52:13.309Z,3.57
2018-05-26T08:54:42.499Z,4.20
2018-05-26T08:57:12.237Z,3.67
2018-05-26T08:59:44.668Z,4.03
2018-05-26T09:02:15.864Z,2.93
2018-05-26T09:04:45.040Z,3.13
2018-05-26T09:07:15.568Z,3.17
2018-05-26T09:09:45.746Z,3.70
2018-05-26T09:12:15.058Z,3.17
2018-05-26T09:14:45.640Z,3.10
2018-05-26T09:17:14.619Z,2.90
2018-05-26T09:19:44.029Z,3.67
2018-05-26T09:22:16.555Z,2.93
2018-05-26T09:24:48.718Z,3.40
2018-05-26T09:27:19.650Z,3.53
2018-05-26T09:29:50.236Z,3.27
2018-05-26T09:32:19.563Z,4.00
2018-05-26T09:35:47.994Z,2.90
2018-05-26T09:38:17.203Z,3.07
2018-05-26T09:40:46.892Z,3.17
2018-05-26T09:43:16.119Z,3.00
2018-05-26T09:45:45.207Z,3.10
2018-05-26T09:48:14.693Z,3.40
2018-05-26T09:50:44.053Z,3.37
2018-05-26T09:53:13.600Z,3.20
2018-05-26T09:55:42.947Z,3.30
2018-05-26T09:58:12.328Z,3.00
2018-05-26T10:00:41.539Z,2.70
2018-05-26T10:03:10.884Z,3.37
2018-05-26T10:05:40.291Z,3.20
2018-05-26T10:08:09.721Z,3.20
2018-05-26T10:10:38.858Z,3.30
2018-05-26T10:13:07.980Z,3.17
2018-05-26T10:15:37.278Z,3.30
2018-05-26T10:18:06.499Z,2.87
2018-05-26T10:20:35.844Z,3.20
2018-05-26T10:23:05.198Z,3.20
2018-05-26T10:25:34.642Z,4.10
2018-05-26T10:28:03.918Z,3.73
2018-05-26T10:30:32.769Z,3.40
2018-05-26T10:33:01.631Z,3.33
2018-05-26T10:35:30.552Z,3.27
2018-05-26T10:37:59.324Z,3.43
2018-05-26T10:40:28.618Z,3.27
2018-05-26T10:42:57.496Z,2.70
2018-05-26T10:45:35.339Z,3.57
2018-05-26T10:48:04.652Z,3.40
2018-05-26T10:50:34.095Z,3.13
2018-05-26T10:53:03.270Z,2.67
2018-05-26T10:55:32.601Z,3.47
2018-05-26T10:58:01.724Z,3.20
2018-05-26T11:00:30.961Z,3.37
2018-05-26T11:03:00.159Z,3.10
2018-05-26T11:05:29.504Z,2.83
2018-05-26T11:07:59.052Z,3.20
2018-05-26T11:10:27.948Z,2.63
2018-05-26T11:12:56.992Z,2.60
2018-05-26T11:15:25.880Z,2.80
2018-05-26T11:17:54.864Z,2.63
2018-05-26T11:20:23.551Z,2.90
2018-05-26T11:22:56.349Z,2.80
2018-05-26T11:25:25.662Z,2.80
2018-05-26T11:27:55.001Z,3.30
2018-05-26T11:30:24.516Z,2.70
2018-05-26T11:32:53.986Z,2.40
2018-05-26T11:35:23.710Z,2.80
2018-05-26T11:37:52.964Z,2.90
2018-05-26T11:40:22.286Z,3.50
2018-05-26T11:42:51.730Z,2.70
2018-05-26T11:45:23.625Z,2.80
2018-05-26T11:47:56.084Z,2.43
2018-05-26T11:50:26.707Z,2.40
2018-05-26T11:52:56.030Z,1.90
2018-05-26T11:55:25.322Z,1.97
2018-05-26T11:57:54.630Z,1.87
2018-05-26T12:00:24.038Z,2.20
2018-05-26T12:02:53.415Z,1.90
2018-05-26T12:05:26.237Z,2.07
2018-05-26T12:07:55.937Z,1.80
2018-05-26T12:10:25.548Z,1.70
2018-05-26T12:12:54.696Z,1.90
2018-05-26T12:15:23.580Z,1.53
2018-05-26T12:17:53.143Z,1.63
2018-05-26T12:20:22.080Z,1.77
2018-05-26T12:22:50.920Z,1.70
2018-05-26T12:25:19.786Z,1.70
2018-05-26T12:27:48.590Z,1.60
2018-05-26T12:30:17.487Z,1.50
2018-05-26T12:32:46.457Z,1.63
2018-05-26T12:35:15.309Z,1.50
2018-05-26T12:37:44.451Z,1.40
2018-05-26T12:40:13.680Z,1.70
2018-05-26T12:42:43.152Z,1.50
2018-05-26T12:45:12.103Z,1.40
2018-05-26T12:47:41.083Z,1.50
2018-05-26T12:50:11.476Z,1.90
2018-05-26T12:52:40.829Z,1.80
2018-05-26T12:55:10.193Z,1.57
2018-05-26T12:57:39.268Z,1.50
2018-05-26T13:00:08.457Z,1.50
2018-05-26T13:02:38.338Z,1.90
2018-05-26T13:05:08.461Z,1.70
2018-05-26T13:07:39.906Z,1.83
2018-05-26T13:10:09.090Z,1.60
2018-05-26T13:12:39.468Z,1.20
2018-05-26T13:15:08.373Z,1.40
2018-05-26T13:17:37.368Z,1.40
2018-05-26T13:20:08.857Z,1.53
2018-05-26T13:22:38.926Z,1.33
2018-05-26T13:25:11.182Z,1.40
2018-05-26T13:27:41.309Z,1.37
2018-05-26T13:30:11.884Z,1.63
2018-05-26T13:32:41.232Z,1.70
2018-05-26T13:35:14.140Z,1.60
2018-05-26T13:37:43.606Z,1.60
2018-05-26T13:40:12.441Z,1.33
2018-05-26T13:42:41.684Z,1.30
2018-05-26T13:45:10.537Z,1.40
2018-05-26T13:47:39.404Z,1.47
2018-05-26T13:50:09.086Z,2.70
2018-05-26T13:52:38.305Z,1.53
2018-05-26T13:55:07.686Z,1.43
2018-05-26T13:57:37.009Z,1.33
2018-05-26T14:00:06.327Z,1.50
2018-05-26T14:02:35.181Z,1.43
2018-05-26T14:05:04.252Z,1.60
2018-05-26T14:07:33.115Z,1.40
2018-05-26T14:10:03.047Z,1.50
2018-05-26T14:12:31.899Z,2.03
2018-05-26T14:15:00.675Z,1.60
2018-05-26T14:17:29.568Z,1.30
2018-05-26T14:19:58.396Z,1.33
2018-05-26T14:22:27.328Z,1.40
2018-05-26T14:24:56.172Z,1.20
2018-05-26T14:27:25.021Z,1.63
2018-05-26T14:29:54.308Z,1.40
2018-05-26T14:32:24.266Z,1.20
2018-05-26T14:34:53.527Z,1.63
2018-05-26T14:37:22.440Z,1.30
2018-05-26T14:39:52.000Z,1.40
2018-05-26T14:42:22.480Z,2.00
2018-05-26T14:44:51.476Z,2.03
2018-05-26T14:47:20.586Z,2.40
2018-05-26T14:49:53.503Z,1.80
2018-05-26T14:52:23.666Z,2.40
2018-05-26T14:54:52.947Z,2.90
2018-05-26T14:57:22.272Z,2.90
2018-05-26T14:59:51.343Z,3.17
2018-05-26T15:02:20.605Z,3.27
2018-05-26T15:04:58.280Z,3.27
2018-05-26T15:07:27.443Z,3.40
2018-05-26T15:09:56.724Z,3.30
2018-05-26T15:12:25.945Z,3.90
2018-05-26T15:14:56.022Z,2.90
2018-05-26T15:17:25.251Z,3.77
2018-05-26T15:19:54.443Z,3.90
2018-05-26T15:22:25.360Z,4.70
2018-05-26T15:24:54.664Z,3.60
2018-05-26T15:27:24.134Z,3.43
2018-05-26T15:29:53.380Z,4.60
2018-05-26T15:32:22.603Z,4.00
2018-05-26T15:34:51.880Z,3.57
2018-05-26T15:37:21.113Z,4.10
2018-05-26T15:39:50.137Z,3.70
2018-05-26T15:42:19.451Z,3.40
2018-05-26T15:44:50.351Z,2.60
2018-05-26T15:47:19.864Z,2.80
2018-05-26T15:49:49.535Z,6.73
2018-05-26T15:52:18.854Z,5.33
2018-05-26T15:54:48.257Z,3.53
2018-05-26T15:57:17.571Z,4.87
2018-05-26T15:59:46.810Z,3.00
2018-05-26T16:02:16.582Z,3.37
2018-05-26T16:04:46.051Z,4.00
2018-05-26T16:07:15.358Z,3.23
2018-05-26T16:09:44.590Z,3.00
2018-05-26T16:12:13.971Z,2.70
2018-05-26T16:14:43.240Z,2.87
2018-05-26T16:17:12.495Z,2.63
2018-05-26T16:19:41.749Z,2.90
2018-05-26T16:22:11.123Z,2.60
2018-05-26T16:24:41.384Z,3.13
2018-05-26T16:27:10.777Z,2.90
2018-05-26T16:29:40.072Z,2.80
2018-05-26T16:32:09.414Z,3.00
2018-05-26T16:34:38.669Z,2.40
2018-05-26T16:37:07.984Z,3.07
2018-05-26T16:39:37.275Z,2.83
2018-05-26T16:42:06.532Z,3.20
2018-05-26T16:44:35.773Z,3.27
2018-05-26T16:47:05.110Z,3.47
2018-05-26T16:49:34.465Z,3.43
2018-05-26T16:52:03.709Z,3.60
2018-05-26T16:54:33.080Z,3.80
2018-05-26T16:57:02.720Z,4.53
2018-05-26T16:59:32.800Z,3.90
2018-05-26T17:02:03.520Z,4.00
2018-05-26T17:04:33.371Z,4.50
2018-05-26T17:07:02.714Z,4.50
2018-05-26T17:09:32.171Z,4.00
2018-05-26T17:12:01.395Z,3.90
2018-05-26T17:14:30.631Z,5.47
2018-05-26T17:16:59.856Z,3.60
2018-05-26T17:19:29.037Z,3.83
2018-05-26T17:21:58.485Z,3.83
2018-05-26T17:24:28.249Z,4.10
2018-05-26T17:27:08.276Z,3.83
2018-05-26T17:29:37.918Z,3.90
2018-05-26T17:32:06.962Z,3.77
2018-05-26T17:34:36.140Z,4.10
2018-05-26T17:37:05.477Z,3.30
2018-05-26T17:39:34.888Z,4.40
2018-05-26T17:42:04.732Z,3.57
2018-05-26T17:44:34.061Z,8.10
2018-05-26T17:47:03.259Z,3.80
2018-05-26T17:49:32.595Z,3.77
2018-05-26T17:52:01.741Z,4.13
2018-05-26T17:54:30.921Z,4.27
2018-05-26T17:57:00.267Z,3.60
2018-05-26T17:59:29.510Z,3.90
2018-05-26T18:01:58.751Z,3.73
2018-05-26T18:04:27.859Z,4.40
2018-05-26T18:06:57.025Z,3.60
2018-05-26T18:09:26.546Z,3.90
2018-05-26T18:11:57.651Z,4.00
2018-05-26T18:14:27.245Z,4.27
2018-05-26T18:16:56.592Z,3.90
2018-05-26T18:19:25.879Z,4.03
2018-05-26T18:21:55.204Z,4.30
2018-05-26T18:24:24.262Z,4.33
2018-05-26T18:26:53.620Z,4.33
2018-05-26T18:29:22.572Z,3.57
2018-05-26T18:31:51.964Z,3.80
2018-05-26T18:34:21.248Z,3.83
2018-05-26T18:36:50.578Z,3.67
2018-05-26T18:39:19.859Z,3.63
2018-05-26T18:41:49.114Z,3.63
2018-05-26T18:44:18.469Z,3.67
2018-05-26T18:46:47.696Z,3.90
2018-05-26T18:49:16.997Z,4.00
2018-05-26T18:51:50.314Z,3.47
2018-05-26T18:54:20.449Z,4.00
2018-05-26T18:56:49.915Z,3.70
2018-05-26T18:59:20.243Z,4.03
2018-05-26T19:01:49.496Z,4.90
2018-05-26T19:04:18.901Z,4.07
2018-05-26T19:06:48.152Z,4.17
2018-05-26T19:09:17.539Z,4.27
2018-05-26T19:11:46.622Z,4.17
2018-05-26T19:14:15.783Z,5.03
2018-05-26T19:16:45.204Z,4.90
2018-05-26T19:19:15.730Z,4.70
2018-05-26T19:21:45.379Z,4.93
2018-05-26T19:24:15.357Z,4.53
2018-05-26T19:26:45.032Z,3.83
2018-05-26T19:29:14.433Z,4.50
2018-05-26T19:31:43.684Z,4.23
2018-05-26T19:34:13.161Z,4.20
2018-05-26T19:36:42.408Z,4.47
2018-05-26T19:39:11.708Z,4.27
2018-05-26T19:41:40.996Z,4.37
2018-05-26T19:44:10.322Z,5.70
2018-05-26T19:46:39.705Z,4.40
2018-05-26T19:49:09.163Z,4.73
2018-05-26T19:51:38.573Z,4.53
2018-05-26T19:54:08.096Z,4.10
2018-05-26T19:56:37.885Z,4.70
2018-05-26T19:59:10.297Z,5.27
2018-05-26T20:01:40.022Z,4.63
2018-05-26T20:04:11.143Z,4.57
2018-05-26T20:06:41.067Z,5.20
2018-05-26T20:09:10.208Z,5.50
2018-05-26T20:11:39.220Z,5.70
2018-05-26T20:14:08.403Z,5.80
2018-05-26T20:16:37.960Z,7.30
2018-05-26T20:19:07.374Z,6.20
2018-05-26T20:21:36.688Z,6.60
2018-05-26T20:24:05.967Z,7.20
2018-05-26T20:26:35.886Z,6.83
2018-05-26T20:29:05.406Z,6.70
2018-05-26T20:31:34.684Z,6.70
2018-05-26T20:34:03.856Z,6.93
2018-05-26T20:36:33.289Z,6.47
2018-05-26T20:39:02.548Z,6.20
2018-05-26T20:41:31.780Z,6.67
2018-05-26T20:44:01.136Z,6.40
2018-05-26T20:46:32.622Z,6.93
2018-05-26T20:49:06.289Z,7.07
2018-05-26T20:51:38.080Z,6.93
2018-05-26T20:54:08.828Z,7.10
2018-05-26T20:56:39.902Z,6.80
2018-05-26T20:59:10.108Z,7.07
2018-05-26T21:01:39.709Z,7.13
2018-05-26T21:04:08.987Z,7.30
2018-05-26T21:06:38.402Z,7.83
2018-05-26T21:09:07.676Z,8.30
2018-05-26T21:11:36.996Z,7.90
2018-05-26T21:14:06.492Z,8.50
2018-05-26T21:16:36.536Z,8.33
2018-05-26T21:19:06.015Z,7.87
2018-05-26T21:21:36.661Z,8.20
2018-05-26T21:24:05.954Z,8.53
2018-05-26T21:26:35.068Z,8.23
2018-05-26T21:29:04.505Z,8.93
2018-05-26T21:31:33.857Z,8.80
2018-05-26T21:34:03.847Z,8.30
2018-05-26T21:36:33.164Z,9.63
2018-05-26T21:39:02.240Z,10.07
2018-05-26T21:41:31.465Z,9.17
2018-05-26T21:44:00.830Z,9.43
2018-05-26T21:46:30.060Z,9.53
2018-05-26T21:48:59.436Z,9.90
2018-05-26T21:51:28.794Z,9.43
2018-05-26T21:53:57.856Z,9.73
2018-05-26T21:56:27.088Z,10.00
2018-05-26T21:58:56.212Z,9.80
2018-05-26T22:01:25.476Z,9.97
2018-05-26T22:03:54.845Z,10.03
2018-05-26T22:06:24.215Z,10.40
2018-05-26T22:08:53.338Z,10.97
2018-05-26T22:11:22.353Z,12.00
2018-05-26T22:13:51.407Z,10.27
2018-05-26T22:16:21.303Z,11.80
2018-05-26T22:18:51.257Z,11.50
2018-05-26T22:21:20.934Z,11.60
2018-05-26T22:23:52.280Z,12.47
2018-05-26T22:26:22.431Z,12.77
2018-05-26T22:28:51.826Z,12.73
2018-05-26T22:31:22.152Z,13.30
2018-05-26T22:33:51.790Z,12.40
2018-05-26T22:36:21.326Z,11.33
2018-05-26T22:38:50.704Z,11.60
2018-05-26T22:41:20.128Z,11.67
2018-05-26T22:43:49.385Z,13.30
2018-05-26T22:46:19.113Z,12.00
2018-05-26T22:48:48.484Z,14.20
2018-05-26T22:51:18.619Z,14.73
2018-05-26T22:53:47.959Z,14.47
2018-05-26T22:56:17.162Z,14.77
2018-05-26T22:58:46.440Z,13.50
2018-05-26T23:01:15.849Z,15.17
2018-05-26T23:03:45.118Z,16.17
2018-05-26T23:06:15.505Z,16.80
2018-05-26T23:08:44.761Z,16.10
2018-05-26T23:11:14.076Z,16.47
2018-05-26T23:13:43.946Z,16.23
2018-05-26T23:16:13.308Z,15.43
2018-05-26T23:18:42.862Z,16.30
2018-05-26T23:21:12.169Z,16.70
2018-05-26T23:23:41.544Z,13.87
2018-05-26T23:26:10.880Z,16.17
2018-05-26T23:28:40.089Z,15.57
2018-05-26T23:31:09.356Z,15.10
2018-05-26T23:33:38.560Z,14.90
2018-05-26T23:36:07.777Z,15.20
2018-05-26T23:38:37.062Z,14.67
2018-05-26T23:41:06.267Z,15.33
2018-05-26T23:43:35.422Z,15.63
2018-05-26T23:46:04.834Z,15.80
2018-05-26T23:48:34.003Z,14.23
2018-05-26T23:51:03.315Z,15.10
2018-05-26T23:53:32.628Z,16.17
2018-05-26T23:56:01.771Z,14.33
2018-05-26T23:58:30.934Z,14.13
